Time;durP1;ratioP1;P1;durP2;ratioP2;P2;SDS_P1;SDS_P2;PMS_P1;PMS_P2;Temp;Humidity;BMP_temperature;BMP_pressure;BME280_temperature;BME280_humidity;BME280_pressure;Samples;Min_cycle;Max_cycle;Signal;HPM_P1;HPM_P2
2023/12/28 00:01:36;;;;;;;150.45;111.28;;;;;;;;;;4965621;28;20125;-62
2023/12/28 00:04:01;;;;;;;248.85;194.38;;;;;;;;;;4967395;28;20444;-64
2023/12/28 00:06:27;;;;;;;252.20;203.43;;;;;;;;;;4966379;28;20030;-64
2023/12/28 00:08:52;;;;;;;170.65;138.35;;;;;;;;;;4966088;28;20066;-63
2023/12/28 00:11:17;;;;;;;153.60;116.97;;;;;;;;;;4964122;28;20042;-63
2023/12/28 00:13:43;;;;;;;218.73;169.00;;;;;;;;;;4966717;28;20026;-63
2023/12/28 00:16:08;;;;;;;159.25;123.95;;;;;;;;;;4965763;28;20045;-65
2023/12/28 00:18:33;;;;;;;130.40;103.22;;;;;;;;;;4967442;28;20030;-64
2023/12/28 00:20:59;;;;;;;107.38;86.28;;;;;;;;;;4964343;28;20042;-64
2023/12/28 00:23:24;;;;;;;106.20;83.18;;;;;;;;;;4964888;28;20494;-65
2023/12/28 00:25:49;;;;;;;69.80;54.83;;;;;;;;;;4958187;28;20030;-64
2023/12/28 00:28:15;;;;;;;79.97;58.20;;;;;;;;;;4953625;28;20045;-63
2023/12/28 00:30:40;;;;;;;162.73;122.40;;;;;;;;;;4962334;28;20053;-63
2023/12/28 00:33:05;;;;;;;150.05;114.95;;;;;;;;;;4966092;28;20015;-64
2023/12/28 00:35:31;;;;;;;131.85;106.45;;;;;;;;;;4965719;28;20038;-65
2023/12/28 00:37:56;;;;;;;202.50;168.73;;;;;;;;;;4967275;28;20026;-63
2023/12/28 00:40:21;;;;;;;234.50;202.20;;;;;;;;;;4952184;28;20122;-63
2023/12/28 00:42:47;;;;;;;256.63;214.63;;;;;;;;;;4954334;28;20027;-63
2023/12/28 00:45:12;;;;;;;291.63;244.90;;;;;;;;;;4967228;28;20662;-64
2023/12/28 00:47:38;;;;;;;277.15;234.70;;;;;;;;;;4966625;28;20042;-64
2023/12/28 00:50:03;;;;;;;143.27;112.95;;;;;;;;;;4964174;28;20457;-63
2023/12/28 00:52:29;;;;;;;171.90;135.60;;;;;;;;;;4965642;28;20034;-64
2023/12/28 00:54:54;;;;;;;155.95;123.63;;;;;;;;;;4965928;28;20035;-63
2023/12/28 00:57:19;;;;;;;119.10;97.30;;;;;;;;;;4967891;28;20037;-64
2023/12/28 00:59:45;;;;;;;99.55;82.20;;;;;;;;;;4954785;28;20035;-66
2023/12/28 01:02:10;;;;;;;161.63;125.55;;;;;;;;;;4965699;28;20125;-63
2023/12/28 01:04:35;;;;;;;116.25;93.95;;;;;;;;;;4968781;28;20100;-63
2023/12/28 01:07:02;;;;;;;125.70;101.93;;;;;;;;;;4969583;28;20039;-64
2023/12/28 01:09:27;;;;;;;126.03;106.07;;;;;;;;;;4969006;28;20061;-66
2023/12/28 01:11:53;;;;;;;97.13;79.30;;;;;;;;;;4968993;28;20035;-63
2023/12/28 01:14:18;;;;;;;92.57;71.15;;;;;;;;;;4970397;28;20580;-65
2023/12/28 01:16:44;;;;;;;121.60;103.30;;;;;;;;;;4968520;28;20042;-66
2023/12/28 01:19:09;;;;;;;113.10;94.57;;;;;;;;;;4971761;28;20045;-64
2023/12/28 01:21:34;;;;;;;85.88;68.57;;;;;;;;;;4972915;28;20050;-64
2023/12/28 01:24:00;;;;;;;81.75;69.45;;;;;;;;;;4967979;28;20113;-65
2023/12/28 01:26:25;;;;;;;70.15;60.13;;;;;;;;;;4971268;28;20335;-66
2023/12/28 01:28:50;;;;;;;103.07;86.60;;;;;;;;;;4970183;28;20034;-67
2023/12/28 01:31:16;;;;;;;83.47;67.22;;;;;;;;;;4969071;28;20043;-64
2023/12/28 01:33:41;;;;;;;86.03;70.00;;;;;;;;;;4969033;28;20121;-67
2023/12/28 01:36:17;;;;;;;84.13;67.35;;;;;;;;;;4968617;28;20038;-65
2023/12/28 01:38:43;;;;;;;124.68;101.18;;;;;;;;;;4962759;28;20069;-64
2023/12/28 01:41:08;;;;;;;98.30;80.68;;;;;;;;;;4966841;28;20046;-66
2023/12/28 01:43:33;;;;;;;93.28;74.63;;;;;;;;;;4969656;28;20039;-66
2023/12/28 01:45:59;;;;;;;123.28;99.28;;;;;;;;;;4967736;28;20035;-64
2023/12/28 01:48:24;;;;;;;128.35;105.15;;;;;;;;;;4971192;28;20027;-63
2023/12/28 01:50:49;;;;;;;107.68;89.65;;;;;;;;;;4967998;28;20080;-64
2023/12/28 01:53:15;;;;;;;114.95;100.15;;;;;;;;;;4957339;28;20046;-64
2023/12/28 01:55:40;;;;;;;109.40;95.28;;;;;;;;;;4968466;28;20027;-63
2023/12/28 01:58:06;;;;;;;117.55;95.55;;;;;;;;;;4955184;28;20018;-67
2023/12/28 02:00:31;;;;;;;94.68;81.65;;;;;;;;;;4952525;28;20050;-67
2023/12/28 02:02:57;;;;;;;90.15;74.93;;;;;;;;;;4966675;28;20399;-63
2023/12/28 02:05:23;;;;;;;78.20;65.18;;;;;;;;;;4967933;28;20030;-63
2023/12/28 02:07:48;;;;;;;69.70;59.95;;;;;;;;;;4965744;28;20031;-64
2023/12/28 02:10:13;;;;;;;75.70;62.38;;;;;;;;;;4967954;28;20411;-63
2023/12/28 02:12:39;;;;;;;75.53;67.20;;;;;;;;;;4967970;28;20109;-63
2023/12/28 02:15:04;;;;;;;102.05;84.30;;;;;;;;;;4966744;28;20055;-65
2023/12/28 02:17:47;;;;;;;109.90;92.55;;;;;;;;;;4964142;28;20038;-64
2023/12/28 02:20:12;;;;;;;110.15;90.00;;;;;;;;;;4962320;28;20476;-65
2023/12/28 02:22:40;;;;;;;106.38;87.88;;;;;;;;;;4967675;28;20030;-64
2023/12/28 02:25:06;;;;;;;76.75;64.90;;;;;;;;;;4969006;28;20109;-65
2023/12/28 02:27:36;;;;;;;66.53;56.58;;;;;;;;;;4967862;28;20362;-64
2023/12/28 02:30:02;;;;;;;70.90;56.35;;;;;;;;;;4967365;28;20046;-65
2023/12/28 02:32:32;;;;;;;71.85;59.65;;;;;;;;;;4966346;28;20114;-64
2023/12/28 02:35:01;;;;;;;75.00;63.08;;;;;;;;;;4967730;28;20122;-64
2023/12/28 02:37:28;;;;;;;84.70;67.60;;;;;;;;;;4961814;28;20063;-65
2023/12/28 02:39:54;;;;;;;107.88;86.80;;;;;;;;;;4953208;28;20046;-65
2023/12/28 02:42:19;;;;;;;110.03;87.72;;;;;;;;;;4960471;28;20025;-63
2023/12/28 02:44:44;;;;;;;110.07;82.80;;;;;;;;;;4967901;28;20086;-64
2023/12/28 02:47:10;;;;;;;87.65;65.15;;;;;;;;;;4967647;28;20042;-64
2023/12/28 02:49:35;;;;;;;93.13;69.65;;;;;;;;;;4966274;28;20038;-66
2023/12/28 02:52:00;;;;;;;64.38;49.15;;;;;;;;;;4966725;28;20066;-65
2023/12/28 02:54:26;;;;;;;68.32;53.92;;;;;;;;;;4967540;28;20030;-64
2023/12/28 02:56:51;;;;;;;46.40;37.20;;;;;;;;;;4966583;28;20595;-67
2023/12/28 02:59:16;;;;;;;24.33;21.42;;;;;;;;;;4965835;28;20173;-64
2023/12/28 03:01:42;;;;;;;25.08;20.60;;;;;;;;;;4965267;28;20038;-63
2023/12/28 03:04:09;;;;;;;28.10;23.17;;;;;;;;;;4963207;28;20030;-65
2023/12/28 03:06:35;;;;;;;33.63;24.25;;;;;;;;;;4958629;28;20027;-65
2023/12/28 03:09:00;;;;;;;47.03;37.42;;;;;;;;;;4967835;28;20058;-64
2023/12/28 03:11:27;;;;;;;42.83;35.03;;;;;;;;;;4966603;28;20050;-64
2023/12/28 03:13:52;;;;;;;27.85;20.83;;;;;;;;;;4966311;28;20030;-64
2023/12/28 03:16:18;;;;;;;33.35;24.40;;;;;;;;;;4967885;28;20038;-64
2023/12/28 03:18:43;;;;;;;46.63;35.70;;;;;;;;;;4966985;28;20030;-64
2023/12/28 03:21:09;;;;;;;39.63;30.70;;;;;;;;;;4967247;28;20045;-64
2023/12/28 03:23:34;;;;;;;53.95;39.78;;;;;;;;;;4966847;28;20046;-66
2023/12/28 03:26:00;;;;;;;46.63;38.88;;;;;;;;;;4965967;28;20035;-64
2023/12/28 03:28:25;;;;;;;51.42;40.88;;;;;;;;;;4965806;28;20026;-65
2023/12/28 03:30:51;;;;;;;50.50;40.22;;;;;;;;;;4968876;28;20026;-64
2023/12/28 03:33:16;;;;;;;84.70;69.35;;;;;;;;;;4963359;28;20126;-63
2023/12/28 03:35:42;;;;;;;55.08;43.08;;;;;;;;;;4958195;28;20077;-63
2023/12/28 03:38:07;;;;;;;62.85;52.28;;;;;;;;;;4965818;28;20085;-64
2023/12/28 03:40:32;;;;;;;62.33;50.08;;;;;;;;;;4964783;28;20039;-64
2023/12/28 03:42:58;;;;;;;55.15;45.50;;;;;;;;;;4964650;28;20026;-64
2023/12/28 03:45:23;;;;;;;67.65;56.15;;;;;;;;;;4963820;28;20034;-65
2023/12/28 03:47:48;;;;;;;56.65;48.40;;;;;;;;;;4958346;28;20030;-65
2023/12/28 03:50:14;;;;;;;52.63;44.10;;;;;;;;;;4952396;28;20030;-64
2023/12/28 03:52:39;;;;;;;76.88;57.33;;;;;;;;;;4966073;28;20065;-65
2023/12/28 03:55:04;;;;;;;153.60;124.63;;;;;;;;;;4967478;28;20031;-63
2023/12/28 03:57:30;;;;;;;150.23;122.68;;;;;;;;;;4968073;28;20117;-63
2023/12/28 03:59:56;;;;;;;108.50;89.50;;;;;;;;;;4965963;28;20034;-63
2023/12/28 04:02:22;;;;;;;88.57;71.85;;;;;;;;;;4969774;28;20081;-66
2023/12/28 04:04:47;;;;;;;88.53;75.00;;;;;;;;;;4967914;28;20030;-63
2023/12/28 04:07:13;;;;;;;80.07;66.10;;;;;;;;;;4962317;28;20081;-63
2023/12/28 04:09:38;;;;;;;73.30;56.38;;;;;;;;;;4966129;28;20073;-64
2023/12/28 04:12:04;;;;;;;74.28;58.00;;;;;;;;;;4967147;28;20038;-65
2023/12/28 04:14:29;;;;;;;78.28;59.55;;;;;;;;;;4967706;28;20435;-65
2023/12/28 04:16:54;;;;;;;111.20;80.13;;;;;;;;;;4966737;28;20065;-65
2023/12/28 04:19:20;;;;;;;122.60;85.72;;;;;;;;;;4959003;28;20038;-65
2023/12/28 04:21:45;;;;;;;95.88;69.05;;;;;;;;;;4962591;28;20034;-67
2023/12/28 04:24:11;;;;;;;117.95;85.88;;;;;;;;;;4969019;28;20398;-66
2023/12/28 04:26:36;;;;;;;122.45;90.70;;;;;;;;;;4967206;28;20018;-65
2023/12/28 04:29:02;;;;;;;118.45;90.40;;;;;;;;;;4966616;28;20042;-66
2023/12/28 04:31:27;;;;;;;116.93;90.35;;;;;;;;;;4962513;28;20026;-67
2023/12/28 04:33:52;;;;;;;120.85;92.57;;;;;;;;;;4957544;28;20450;-63
2023/12/28 04:36:18;;;;;;;117.45;92.32;;;;;;;;;;4955416;28;20030;-65
2023/12/28 04:38:43;;;;;;;147.85;112.85;;;;;;;;;;4954883;28;20219;-65
2023/12/28 04:41:09;;;;;;;123.45;95.35;;;;;;;;;;4956133;28;20070;-65
2023/12/28 04:43:34;;;;;;;116.10;94.38;;;;;;;;;;4957559;28;20039;-63
2023/12/28 04:46:06;;;;;;;95.30;74.68;;;;;;;;;;4957711;28;20077;-65
2023/12/28 04:48:32;;;;;;;57.72;49.20;;;;;;;;;;4956691;28;20422;-64
2023/12/28 04:50:57;;;;;;;77.30;56.17;;;;;;;;;;4955851;28;20116;-64
2023/12/28 04:53:22;;;;;;;49.28;37.83;;;;;;;;;;4964568;28;20030;-63
2023/12/28 04:55:48;;;;;;;47.17;39.22;;;;;;;;;;4966967;28;20122;-66
2023/12/28 04:58:14;;;;;;;45.92;37.00;;;;;;;;;;4961184;28;20497;-66
2023/12/28 05:00:39;;;;;;;43.80;37.65;;;;;;;;;;4965686;28;20439;-65
2023/12/28 05:03:04;;;;;;;60.97;50.20;;;;;;;;;;4959327;28;20117;-64
2023/12/28 05:05:30;;;;;;;56.10;48.42;;;;;;;;;;4969576;28;20080;-64
2023/12/28 05:07:55;;;;;;;57.08;46.20;;;;;;;;;;4968829;28;20117;-64
2023/12/28 05:10:21;;;;;;;103.78;80.88;;;;;;;;;;4968173;28;20145;-63
2023/12/28 05:12:46;;;;;;;101.97;72.70;;;;;;;;;;4969103;28;20046;-66
2023/12/28 05:15:11;;;;;;;87.47;65.43;;;;;;;;;;4969580;28;20038;-65
2023/12/28 05:17:37;;;;;;;67.72;51.67;;;;;;;;;;4964694;28;20034;-66
2023/12/28 05:20:02;;;;;;;60.38;45.20;;;;;;;;;;4957793;28;20187;-64
2023/12/28 05:22:28;;;;;;;87.45;64.93;;;;;;;;;;4955547;28;20535;-64
2023/12/28 05:24:53;;;;;;;63.85;48.85;;;;;;;;;;4954731;28;20448;-64
2023/12/28 05:27:18;;;;;;;52.75;43.15;;;;;;;;;;4955171;28;20035;-63
2023/12/28 05:29:44;;;;;;;38.83;31.20;;;;;;;;;;4964010;28;20035;-64
2023/12/28 05:32:09;;;;;;;30.60;25.05;;;;;;;;;;4963781;28;20425;-67
2023/12/28 05:34:35;;;;;;;33.58;26.38;;;;;;;;;;4963236;28;20027;-64
2023/12/28 05:37:00;;;;;;;28.13;24.15;;;;;;;;;;4970281;28;20443;-65
2023/12/28 05:39:26;;;;;;;27.15;23.60;;;;;;;;;;4967270;28;20030;-66
2023/12/28 05:41:51;;;;;;;30.17;26.88;;;;;;;;;;4968105;28;20093;-66
2023/12/28 05:44:17;;;;;;;35.60;31.02;;;;;;;;;;4967942;28;20038;-67
2023/12/28 05:46:42;;;;;;;40.25;34.63;;;;;;;;;;4961073;28;20050;-65
2023/12/28 05:49:07;;;;;;;76.15;59.92;;;;;;;;;;4965991;28;20390;-63
2023/12/28 05:51:42;;;;;;;115.53;90.80;;;;;;;;;;4969195;28;20035;-63
2023/12/28 05:54:08;;;;;;;130.68;112.03;;;;;;;;;;4971595;28;20030;-63
2023/12/28 05:56:33;;;;;;;73.95;57.65;;;;;;;;;;4972662;28;20031;-64
2023/12/28 05:58:59;;;;;;;114.47;91.10;;;;;;;;;;4964946;28;20101;-65
2023/12/28 06:01:24;;;;;;;127.03;92.75;;;;;;;;;;4955948;28;20053;-64
2023/12/28 06:03:52;;;;;;;158.23;123.80;;;;;;;;;;4956338;28;20037;-66
2023/12/28 06:06:17;;;;;;;156.90;117.05;;;;;;;;;;4968050;28;20129;-65
2023/12/28 06:08:43;;;;;;;96.75;70.47;;;;;;;;;;4967977;28;20090;-64
2023/12/28 06:11:08;;;;;;;75.13;59.53;;;;;;;;;;4967073;28;20658;-67
2023/12/28 06:13:34;;;;;;;93.25;72.45;;;;;;;;;;4955726;28;20477;-64
2023/12/28 06:15:59;;;;;;;78.32;66.35;;;;;;;;;;4957208;28;20130;-65
2023/12/28 06:18:24;;;;;;;110.15;89.65;;;;;;;;;;4956356;28;20109;-66
2023/12/28 06:20:50;;;;;;;98.20;81.88;;;;;;;;;;4966114;28;20307;-63
2023/12/28 06:23:15;;;;;;;96.93;80.35;;;;;;;;;;4968613;28;20178;-67
2023/12/28 06:25:40;;;;;;;170.52;129.88;;;;;;;;;;4966756;28;20042;-64
2023/12/28 06:28:06;;;;;;;463.23;325.55;;;;;;;;;;4966837;28;20017;-68
2023/12/28 06:30:31;;;;;;;512.38;373.60;;;;;;;;;;4958174;28;20079;-66
2023/12/28 06:32:56;;;;;;;469.30;367.95;;;;;;;;;;4959819;28;20031;-64
2023/12/28 06:35:22;;;;;;;307.85;226.13;;;;;;;;;;4966198;28;20038;-64
2023/12/28 06:37:47;;;;;;;110.55;83.63;;;;;;;;;;4970436;28;20073;-64
2023/12/28 06:40:12;;;;;;;189.50;146.00;;;;;;;;;;4954286;28;20124;-65
2023/12/28 06:42:38;;;;;;;194.27;160.13;;;;;;;;;;4968793;28;20031;-64
2023/12/28 06:45:03;;;;;;;165.95;145.52;;;;;;;;;;4968219;28;20034;-64
2023/12/28 06:47:29;;;;;;;125.90;111.32;;;;;;;;;;4969117;28;20172;-66
2023/12/28 06:49:54;;;;;;;143.60;124.65;;;;;;;;;;4967573;28;20113;-66
2023/12/28 06:52:19;;;;;;;150.52;130.35;;;;;;;;;;4970194;28;20419;-67
2023/12/28 06:54:45;;;;;;;114.00;95.95;;;;;;;;;;4967881;28;20042;-65
2023/12/28 06:57:10;;;;;;;144.18;121.78;;;;;;;;;;4966584;28;20368;-66
2023/12/28 06:59:35;;;;;;;120.93;100.38;;;;;;;;;;4969551;28;20137;-65
2023/12/28 07:02:01;;;;;;;122.50;94.43;;;;;;;;;;4967509;28;20031;-66
2023/12/28 07:04:29;;;;;;;94.85;82.60;;;;;;;;;;4966044;28;20038;-67
2023/12/28 07:06:54;;;;;;;129.63;99.43;;;;;;;;;;4969454;28;20026;-67
2023/12/28 07:09:20;;;;;;;80.65;70.05;;;;;;;;;;4966448;28;20064;-66
2023/12/28 07:11:45;;;;;;;182.50;157.88;;;;;;;;;;4969364;28;20034;-65
2023/12/28 07:14:11;;;;;;;157.20;130.30;;;;;;;;;;4966521;28;20039;-65
2023/12/28 07:16:36;;;;;;;129.07;107.65;;;;;;;;;;4965798;28;20062;-67
2023/12/28 07:19:01;;;;;;;126.65;111.60;;;;;;;;;;4967040;28;20105;-66
2023/12/28 07:21:27;;;;;;;119.95;107.15;;;;;;;;;;4970518;28;20076;-66
2023/12/28 07:23:52;;;;;;;101.82;90.18;;;;;;;;;;4966558;28;20041;-65
2023/12/28 07:26:18;;;;;;;111.75;93.70;;;;;;;;;;4967246;28;20057;-64
2023/12/28 07:28:44;;;;;;;105.32;93.25;;;;;;;;;;4967053;28;20038;-65
2023/12/28 07:31:10;;;;;;;84.90;75.90;;;;;;;;;;4967154;28;20066;-65
2023/12/28 07:33:35;;;;;;;113.82;102.90;;;;;;;;;;4966092;28;20046;-65
2023/12/28 07:36:02;;;;;;;77.55;64.55;;;;;;;;;;4966550;28;20027;-66
2023/12/28 07:38:28;;;;;;;102.65;84.97;;;;;;;;;;4966837;28;20062;-66
2023/12/28 07:40:53;;;;;;;77.57;59.70;;;;;;;;;;4965488;28;20426;-67
2023/12/28 07:43:19;;;;;;;119.57;100.30;;;;;;;;;;4965046;28;20038;-66
2023/12/28 07:45:44;;;;;;;85.97;73.15;;;;;;;;;;4966767;28;20114;-67
2023/12/28 07:48:09;;;;;;;210.75;161.95;;;;;;;;;;4966858;28;20038;-66
2023/12/28 07:50:35;;;;;;;204.45;155.27;;;;;;;;;;4966882;28;20039;-66
2023/12/28 07:53:00;;;;;;;141.73;113.95;;;;;;;;;;4967292;28;20034;-67
2023/12/28 07:55:26;;;;;;;203.88;176.55;;;;;;;;;;4965816;28;20208;-66
2023/12/28 07:57:51;;;;;;;210.95;187.77;;;;;;;;;;4966067;28;20443;-68
2023/12/28 08:00:17;;;;;;;87.47;74.03;;;;;;;;;;4967740;28;20118;-67
2023/12/28 08:02:43;;;;;;;91.50;81.97;;;;;;;;;;4965588;28;20038;-67
2023/12/28 08:05:08;;;;;;;88.53;79.53;;;;;;;;;;4965682;28;20033;-67
2023/12/28 08:07:34;;;;;;;96.80;87.15;;;;;;;;;;4965830;28;20038;-67
2023/12/28 08:09:59;;;;;;;78.22;69.82;;;;;;;;;;4966165;28;20505;-66
2023/12/28 08:12:27;;;;;;;75.22;67.47;;;;;;;;;;4967086;28;20034;-69
2023/12/28 08:14:52;;;;;;;63.47;50.90;;;;;;;;;;4966762;28;20117;-68
2023/12/28 08:17:18;;;;;;;78.40;59.15;;;;;;;;;;4972103;28;20034;-68
2023/12/28 08:19:43;;;;;;;57.65;47.67;;;;;;;;;;4970098;28;20116;-68
2023/12/28 08:22:09;;;;;;;51.88;43.95;;;;;;;;;;4970621;28;20039;-67
2023/12/28 08:24:36;;;;;;;65.35;58.17;;;;;;;;;;4969257;28;20030;-66
2023/12/28 08:27:02;;;;;;;89.28;79.53;;;;;;;;;;4969852;28;20399;-65
2023/12/28 08:29:28;;;;;;;150.45;134.85;;;;;;;;;;4970485;28;20039;-68
2023/12/28 08:31:54;;;;;;;176.32;157.73;;;;;;;;;;4971347;28;20513;-67
2023/12/28 08:34:20;;;;;;;130.18;116.10;;;;;;;;;;4972030;28;20035;-67
2023/12/28 08:36:46;;;;;;;196.13;174.75;;;;;;;;;;4970857;28;20030;-67
2023/12/28 08:39:11;;;;;;;144.27;127.43;;;;;;;;;;4969661;28;20145;-68
2023/12/28 08:41:37;;;;;;;157.30;137.75;;;;;;;;;;4971254;28;20093;-67
2023/12/28 08:44:02;;;;;;;195.45;165.13;;;;;;;;;;4970591;28;20084;-67
2023/12/28 08:46:28;;;;;;;72.68;64.80;;;;;;;;;;4971125;28;20323;-68
2023/12/28 08:48:54;;;;;;;62.08;55.47;;;;;;;;;;4971004;28;20041;-69
2023/12/28 08:51:20;;;;;;;56.47;50.88;;;;;;;;;;4971658;28;21426;-68
2023/12/28 08:53:46;;;;;;;168.05;150.10;;;;;;;;;;4972314;28;20074;-69
2023/12/28 08:56:14;;;;;;;88.28;79.07;;;;;;;;;;4970129;28;20469;-68
2023/12/28 08:58:39;;;;;;;81.80;54.72;;;;;;;;;;4969949;28;20022;-70
2023/12/28 09:01:04;;;;;;;69.85;62.80;;;;;;;;;;4970745;28;20090;-66
2023/12/28 09:03:30;;;;;;;57.90;52.10;;;;;;;;;;4970076;28;20113;-66
2023/12/28 09:05:55;;;;;;;72.57;65.53;;;;;;;;;;4970704;28;20022;-67
2023/12/28 09:08:20;;;;;;;72.20;65.28;;;;;;;;;;4971869;28;20081;-69
2023/12/28 09:10:46;;;;;;;64.15;57.65;;;;;;;;;;4972017;28;20026;-67
2023/12/28 09:13:15;;;;;;;55.30;49.60;;;;;;;;;;4969882;28;20038;-68
2023/12/28 09:15:41;;;;;;;38.80;34.85;;;;;;;;;;4968618;28;20035;-69
2023/12/28 09:18:06;;;;;;;44.67;40.25;;;;;;;;;;4970928;28;20395;-68
2023/12/28 09:20:31;;;;;;;45.55;41.05;;;;;;;;;;4970374;28;20406;-68
2023/12/28 09:22:57;;;;;;;24.85;22.25;;;;;;;;;;4969728;28;20108;-69
2023/12/28 09:25:22;;;;;;;22.40;20.05;;;;;;;;;;4969910;28;20159;-68
2023/12/28 09:27:47;;;;;;;21.95;19.77;;;;;;;;;;4969599;28;20045;-70
2023/12/28 09:30:13;;;;;;;20.27;18.38;;;;;;;;;;4969046;28;20037;-68
2023/12/28 09:32:38;;;;;;;26.70;24.20;;;;;;;;;;4968932;28;20019;-68
2023/12/28 09:35:04;;;;;;;19.60;17.70;;;;;;;;;;4969376;28;20085;-68
2023/12/28 09:37:29;;;;;;;18.35;16.48;;;;;;;;;;4970455;28;20023;-69
2023/12/28 09:39:55;;;;;;;21.63;19.48;;;;;;;;;;4970830;28;20037;-67
2023/12/28 09:42:26;;;;;;;24.33;21.88;;;;;;;;;;4969773;28;20023;-68
2023/12/28 09:44:52;;;;;;;20.92;18.80;;;;;;;;;;4971057;28;20426;-69
2023/12/28 09:47:17;;;;;;;22.35;19.63;;;;;;;;;;4969994;28;20097;-68
2023/12/28 09:49:43;;;;;;;20.17;18.17;;;;;;;;;;4969137;28;20085;-67
2023/12/28 09:52:09;;;;;;;20.35;18.27;;;;;;;;;;4968975;28;20410;-69
2023/12/28 09:54:35;;;;;;;19.33;17.30;;;;;;;;;;4972273;28;20084;-69
2023/12/28 09:57:00;;;;;;;19.10;17.10;;;;;;;;;;4969725;28;20030;-68
2023/12/28 09:59:26;;;;;;;16.40;14.80;;;;;;;;;;4970723;28;20026;-69
2023/12/28 10:01:54;;;;;;;18.58;16.60;;;;;;;;;;4969599;28;20043;-68
2023/12/28 10:04:20;;;;;;;22.88;19.42;;;;;;;;;;4971585;28;20026;-69
2023/12/28 10:06:45;;;;;;;18.67;16.70;;;;;;;;;;4969071;28;20442;-68
2023/12/28 10:09:11;;;;;;;14.52;13.13;;;;;;;;;;4971747;28;20057;-69
2023/12/28 10:11:37;;;;;;;18.33;16.50;;;;;;;;;;4970312;28;20030;-68
2023/12/28 10:14:04;;;;;;;18.10;15.35;;;;;;;;;;4968015;28;20513;-69
2023/12/28 10:16:30;;;;;;;17.55;15.18;;;;;;;;;;4967864;28;20050;-69
2023/12/28 10:18:55;;;;;;;17.40;15.50;;;;;;;;;;4969902;28;20065;-68
2023/12/28 10:21:21;;;;;;;14.38;12.95;;;;;;;;;;4969048;28;20053;-70
2023/12/28 10:23:46;;;;;;;11.57;10.38;;;;;;;;;;4972787;28;20041;-68
2023/12/28 10:26:12;;;;;;;11.30;10.23;;;;;;;;;;4971896;28;20035;-69
2023/12/28 10:28:39;;;;;;;12.32;10.93;;;;;;;;;;4972998;28;20023;-68
2023/12/28 10:31:05;;;;;;;13.80;11.90;;;;;;;;;;4968405;28;20042;-68
2023/12/28 10:33:36;;;;;;;15.25;13.73;;;;;;;;;;4971371;28;20023;-68
2023/12/28 10:36:06;;;;;;;13.27;11.93;;;;;;;;;;4973241;28;20044;-70
2023/12/28 10:38:34;;;;;;;12.68;11.43;;;;;;;;;;4970221;28;20081;-68
2023/12/28 10:40:59;;;;;;;14.43;13.02;;;;;;;;;;4967063;28;20046;-70
2023/12/28 10:43:26;;;;;;;28.15;25.17;;;;;;;;;;4970962;28;20045;-69
2023/12/28 10:45:54;;;;;;;20.10;18.00;;;;;;;;;;4973576;28;20038;-69
2023/12/28 10:48:29;;;;;;;20.13;18.08;;;;;;;;;;4969748;28;20509;-69
2023/12/28 10:50:57;;;;;;;31.05;27.73;;;;;;;;;;4969444;28;20117;-69
2023/12/28 10:53:25;;;;;;;37.42;33.50;;;;;;;;;;4970981;28;20022;-69
2023/12/28 10:55:50;;;;;;;38.05;34.05;;;;;;;;;;4968891;28;20035;-69
2023/12/28 10:58:19;;;;;;;27.52;24.70;;;;;;;;;;4968485;28;20464;-70
2023/12/28 11:00:49;;;;;;;38.28;34.13;;;;;;;;;;4968715;28;20434;-69
2023/12/28 11:03:18;;;;;;;26.05;18.85;;;;;;;;;;4969016;28;20030;-69
2023/12/28 11:05:45;;;;;;;33.55;22.35;;;;;;;;;;4969558;28;20022;-69
2023/12/28 11:08:14;;;;;;;14.55;12.50;;;;;;;;;;4968313;28;20464;-70
2023/12/28 11:10:41;;;;;;;15.57;13.95;;;;;;;;;;4968880;28;20030;-70
2023/12/28 11:13:08;;;;;;;19.52;16.90;;;;;;;;;;4969942;28;20129;-69
2023/12/28 11:15:34;;;;;;;28.73;25.05;;;;;;;;;;4971061;28;20480;-69
2023/12/28 11:18:00;;;;;;;41.75;37.42;;;;;;;;;;4968569;28;20481;-69
2023/12/28 11:20:25;;;;;;;30.13;27.13;;;;;;;;;;4967755;28;20114;-69
2023/12/28 11:22:51;;;;;;;24.05;21.75;;;;;;;;;;4965918;28;20138;-70
2023/12/28 11:25:18;;;;;;;18.33;16.52;;;;;;;;;;4968681;28;20031;-70
2023/12/28 11:27:43;;;;;;;35.70;32.30;;;;;;;;;;4958818;28;20089;-69
2023/12/28 11:30:10;;;;;;;30.50;27.60;;;;;;;;;;4967494;28;20034;-70
2023/12/28 11:32:36;;;;;;;58.65;53.03;;;;;;;;;;4968778;28;20466;-69
2023/12/28 11:35:01;;;;;;;61.05;54.65;;;;;;;;;;4966307;28;20039;-69
2023/12/28 11:37:27;;;;;;;32.63;29.33;;;;;;;;;;4959693;28;20030;-69
2023/12/28 11:39:52;;;;;;;18.60;16.67;;;;;;;;;;4969513;28;20097;-68
2023/12/28 11:42:22;;;;;;;18.90;15.65;;;;;;;;;;4966398;28;20395;-68
2023/12/28 11:44:52;;;;;;;26.50;19.65;;;;;;;;;;4967850;28;20034;-69
2023/12/28 11:47:22;;;;;;;32.15;26.48;;;;;;;;;;4968510;28;20029;-68
2023/12/28 11:49:48;;;;;;;53.10;42.80;;;;;;;;;;4969019;28;20521;-69
2023/12/28 11:52:27;;;;;;;42.47;36.08;;;;;;;;;;4968782;28;20044;-69
2023/12/28 11:54:52;;;;;;;27.63;24.80;;;;;;;;;;4967103;28;20034;-69
2023/12/28 11:57:18;;;;;;;78.15;69.63;;;;;;;;;;4970982;28;20121;-70
2023/12/28 11:59:43;;;;;;;62.05;49.85;;;;;;;;;;4969940;28;20034;-70
2023/12/28 12:02:09;;;;;;;55.22;49.33;;;;;;;;;;4970308;28;20085;-69
2023/12/28 12:04:35;;;;;;;48.58;43.63;;;;;;;;;;4969622;28;20027;-69
2023/12/28 12:07:04;;;;;;;28.02;24.55;;;;;;;;;;4968311;28;20041;-69
2023/12/28 12:09:32;;;;;;;34.35;30.95;;;;;;;;;;4968487;28;20113;-69
2023/12/28 12:11:58;;;;;;;30.27;27.30;;;;;;;;;;4968515;28;20050;-69
2023/12/28 12:14:24;;;;;;;25.17;22.80;;;;;;;;;;4968887;28;20026;-69
2023/12/28 12:16:49;;;;;;;20.92;18.85;;;;;;;;;;4968442;28;20045;-69
2023/12/28 12:19:15;;;;;;;24.67;22.27;;;;;;;;;;4967766;28;20022;-69
2023/12/28 12:21:40;;;;;;;23.52;21.30;;;;;;;;;;4969772;28;20129;-69
2023/12/28 12:24:06;;;;;;;21.35;19.25;;;;;;;;;;4967759;28;20038;-69
2023/12/28 12:26:31;;;;;;;22.35;20.13;;;;;;;;;;4968476;28;20875;-70
2023/12/28 12:28:57;;;;;;;22.42;20.13;;;;;;;;;;4967597;28;20535;-69
2023/12/28 12:31:23;;;;;;;25.75;23.17;;;;;;;;;;4969015;28;20469;-70
2023/12/28 12:33:48;;;;;;;27.70;24.90;;;;;;;;;;4968704;28;20038;-70
2023/12/28 12:36:14;;;;;;;28.80;25.70;;;;;;;;;;4968401;28;20031;-70
2023/12/28 12:38:40;;;;;;;26.73;23.88;;;;;;;;;;4968497;28;20505;-70
2023/12/28 12:41:05;;;;;;;30.70;27.45;;;;;;;;;;4965802;28;20458;-70
2023/12/28 12:43:31;;;;;;;31.85;28.45;;;;;;;;;;4965557;28;20490;-70
2023/12/28 12:45:56;;;;;;;28.13;25.23;;;;;;;;;;4965776;28;20138;-70
2023/12/28 12:48:22;;;;;;;20.90;18.75;;;;;;;;;;4966685;28;20030;-69
2023/12/28 12:50:47;;;;;;;27.48;24.52;;;;;;;;;;4966811;28;20042;-70
2023/12/28 12:53:12;;;;;;;22.85;20.45;;;;;;;;;;4967007;28;20097;-69
2023/12/28 12:55:45;;;;;;;24.95;21.58;;;;;;;;;;4966970;28;20019;-69
2023/12/28 12:58:12;;;;;;;22.25;19.95;;;;;;;;;;4966500;28;20046;-69
2023/12/28 13:00:38;;;;;;;23.23;20.70;;;;;;;;;;4967969;28;20035;-68
2023/12/28 13:03:07;;;;;;;29.27;24.77;;;;;;;;;;4968708;28;20033;-69
2023/12/28 13:05:32;;;;;;;30.40;26.58;;;;;;;;;;4972225;28;20105;-69
2023/12/28 13:07:58;;;;;;;28.42;25.33;;;;;;;;;;4967583;28;20429;-70
2023/12/28 13:10:24;;;;;;;32.42;28.27;;;;;;;;;;4974953;28;20066;-69
2023/12/28 13:12:49;;;;;;;37.67;31.25;;;;;;;;;;4972653;28;20049;-69
2023/12/28 13:15:14;;;;;;;39.00;34.65;;;;;;;;;;4960348;28;20031;-70
2023/12/28 13:17:40;;;;;;;42.58;35.38;;;;;;;;;;4968942;28;20158;-69
2023/12/28 13:20:06;;;;;;;41.78;34.72;;;;;;;;;;4970699;28;20271;-70
2023/12/28 13:22:32;;;;;;;37.40;32.78;;;;;;;;;;4965223;28;20366;-68
2023/12/28 13:24:58;;;;;;;38.65;34.50;;;;;;;;;;4957245;28;20343;-69
2023/12/28 13:27:23;;;;;;;35.50;30.73;;;;;;;;;;4959515;28;20516;-69
2023/12/28 13:29:49;;;;;;;56.08;45.22;;;;;;;;;;4969458;28;20042;-68
2023/12/28 13:32:15;;;;;;;38.78;32.22;;;;;;;;;;4970189;28;20047;-69
2023/12/28 13:34:40;;;;;;;33.75;28.23;;;;;;;;;;4961631;28;20936;-71
2023/12/28 13:37:06;;;;;;;64.20;44.28;;;;;;;;;;4960308;28;20169;-70
2023/12/28 13:39:31;;;;;;;46.90;36.47;;;;;;;;;;4965644;28;20030;-69
2023/12/28 13:41:57;;;;;;;41.88;36.47;;;;;;;;;;4965117;28;20111;-70
2023/12/28 13:44:22;;;;;;;34.70;28.73;;;;;;;;;;4956595;28;20065;-68
2023/12/28 13:46:48;;;;;;;54.65;43.78;;;;;;;;;;4971391;28;20030;-70
2023/12/28 13:49:14;;;;;;;36.55;31.52;;;;;;;;;;4960762;28;20113;-69
2023/12/28 13:51:39;;;;;;;33.65;24.75;;;;;;;;;;4958018;28;20045;-68
2023/12/28 13:54:05;;;;;;;49.53;41.92;;;;;;;;;;4963350;28;23381;-68
2023/12/28 13:56:30;;;;;;;49.97;43.95;;;;;;;;;;4967211;28;20034;-67
2023/12/28 13:58:56;;;;;;;33.13;29.10;;;;;;;;;;4961512;28;20739;-69
2023/12/28 14:01:21;;;;;;;29.13;24.45;;;;;;;;;;4957793;28;20027;-68
2023/12/28 14:03:48;;;;;;;33.45;27.48;;;;;;;;;;4956253;28;20054;-69